sensor_id;sensor_type;location;lat;lon;timestamp;pressure;altitude;pressure_sealevel;temperature;humidity
54994;BME280;40891;47.242;8.648;2023-01-13T00:00:23;96492.72;;;4.49;100.00
54994;BME280;40891;47.242;8.648;2023-01-13T00:02:48;96491.03;;;4.58;100.00
54994;BME280;40891;47.242;8.648;2023-01-13T00:05:14;96483.41;;;4.69;100.00
54994;BME280;40891;47.242;8.648;2023-01-13T00:07:39;96481.09;;;4.68;100.00
54994;BME280;40891;47.242;8.648;2023-01-13T00:10:09;96480.31;;;4.67;100.00
54994;BME280;40891;47.242;8.648;2023-01-13T00:12:38;96494.50;;;4.66;100.00
54994;BME280;40891;47.242;8.648;2023-01-13T00:15:04;96489.88;;;4.56;100.00
54994;BME280;40891;47.242;8.648;2023-01-13T00:17:29;96486.78;;;4.50;100.00
54994;BME280;40891;47.242;8.648;2023-01-13T00:19:54;96478.34;;;4.68;100.00
54994;BME280;40891;47.242;8.648;2023-01-13T00:22:21;96478.72;;;4.66;100.00
54994;BME280;40891;47.242;8.648;2023-01-13T00:24:46;96461.28;;;4.80;100.00
54994;BME280;40891;47.242;8.648;2023-01-13T00:27:11;96456.03;;;4.89;100.00
54994;BME280;40891;47.242;8.648;2023-01-13T00:29:37;96439.50;;;4.89;100.00
54994;BME280;40891;47.242;8.648;2023-01-13T00:32:02;96441.84;;;4.91;100.00
54994;BME280;40891;47.242;8.648;2023-01-13T00:34:27;96429.91;;;5.01;100.00
54994;BME280;40891;47.242;8.648;2023-01-13T00:36:53;96426.03;;;4.95;100.00
54994;BME280;40891;47.242;8.648;2023-01-13T00:39:18;96418.66;;;4.88;100.00
54994;BME280;40891;47.242;8.648;2023-01-13T00:41:43;96411.91;;;4.93;100.00
54994;BME280;40891;47.242;8.648;2023-01-13T00:44:27;96413.78;;;4.99;99.30
54994;BME280;40891;47.242;8.648;2023-01-13T00:46:52;96412.91;;;5.06;100.00
54994;BME280;40891;47.242;8.648;2023-01-13T00:49:18;96413.25;;;5.08;100.00
54994;BME280;40891;47.242;8.648;2023-01-13T00:51:43;96424.75;;;5.03;98.87
54994;BME280;40891;47.242;8.648;2023-01-13T00:54:08;96420.72;;;5.11;98.39
54994;BME280;40891;47.242;8.648;2023-01-13T00:56:34;96415.94;;;5.11;98.75
54994;BME280;40891;47.242;8.648;2023-01-13T00:58:59;96418.22;;;5.20;99.00
54994;BME280;40891;47.242;8.648;2023-01-13T01:01:26;96418.66;;;5.15;99.25
54994;BME280;40891;47.242;8.648;2023-01-13T01:03:53;96422.94;;;5.19;99.15
54994;BME280;40891;47.242;8.648;2023-01-13T01:06:21;96404.34;;;5.23;98.08
54994;BME280;40891;47.242;8.648;2023-01-13T01:08:46;96408.69;;;5.24;98.77
54994;BME280;40891;47.242;8.648;2023-01-13T01:11:14;96403.50;;;5.30;96.52
54994;BME280;40891;47.242;8.648;2023-01-13T01:13:40;96399.94;;;5.29;97.59
54994;BME280;40891;47.242;8.648;2023-01-13T01:16:07;96390.56;;;5.23;97.58
54994;BME280;40891;47.242;8.648;2023-01-13T01:18:34;96398.50;;;5.21;95.28
54994;BME280;40891;47.242;8.648;2023-01-13T01:21:00;96389.75;;;5.26;94.33
54994;BME280;40891;47.242;8.648;2023-01-13T01:23:29;96406.53;;;5.35;94.18
54994;BME280;40891;47.242;8.648;2023-01-13T01:26:02;96403.06;;;5.31;94.75
54994;BME280;40891;47.242;8.648;2023-01-13T01:28:28;96408.72;;;5.21;95.15
54994;BME280;40891;47.242;8.648;2023-01-13T01:30:53;96412.00;;;5.12;96.34
54994;BME280;40891;47.242;8.648;2023-01-13T01:33:20;96406.97;;;5.07;96.27
54994;BME280;40891;47.242;8.648;2023-01-13T01:35:45;96407.41;;;5.06;96.92
54994;BME280;40891;47.242;8.648;2023-01-13T01:38:10;96410.16;;;5.06;97.37
54994;BME280;40891;47.242;8.648;2023-01-13T01:40:36;96402.00;;;4.99;98.40
54994;BME280;40891;47.242;8.648;2023-01-13T01:43:01;96416.47;;;5.03;98.76
54994;BME280;40891;47.242;8.648;2023-01-13T01:45:45;96411.41;;;5.01;98.25
54994;BME280;40891;47.242;8.648;2023-01-13T01:48:11;96405.88;;;5.01;97.92
54994;BME280;40891;47.242;8.648;2023-01-13T01:50:37;96407.59;;;5.18;98.31
54994;BME280;40891;47.242;8.648;2023-01-13T01:53:09;96400.47;;;4.94;99.31
54994;BME280;40891;47.242;8.648;2023-01-13T01:55:37;96397.44;;;5.12;98.03
54994;BME280;40891;47.242;8.648;2023-01-13T01:58:18;96391.44;;;5.20;96.42
54994;BME280;40891;47.242;8.648;2023-01-13T02:00:46;96400.22;;;5.35;91.66
54994;BME280;40891;47.242;8.648;2023-01-13T02:03:12;96398.03;;;5.49;87.32
54994;BME280;40891;47.242;8.648;2023-01-13T02:05:39;96378.31;;;5.74;86.70
54994;BME280;40891;47.242;8.648;2023-01-13T02:08:07;96375.78;;;5.83;85.54
54994;BME280;40891;47.242;8.648;2023-01-13T02:10:33;96379.22;;;5.91;85.00
54994;BME280;40891;47.242;8.648;2023-01-13T02:13:01;96382.91;;;5.84;86.96
54994;BME280;40891;47.242;8.648;2023-01-13T02:15:54;96376.94;;;5.86;87.08
54994;BME280;40891;47.242;8.648;2023-01-13T02:24:59;96384.91;;;5.80;86.45
54994;BME280;40891;47.242;8.648;2023-01-13T02:30:29;96382.56;;;5.79;88.43
54994;BME280;40891;47.242;8.648;2023-01-13T02:36:38;96380.38;;;5.70;89.30
54994;BME280;40891;47.242;8.648;2023-01-13T02:39:44;96371.66;;;5.72;88.75
54994;BME280;40891;47.242;8.648;2023-01-13T02:42:24;96373.06;;;5.80;87.28
54994;BME280;40891;47.242;8.648;2023-01-13T02:45:13;96363.97;;;5.83;84.80
54994;BME280;40891;47.242;8.648;2023-01-13T02:47:42;96369.19;;;6.20;79.13
54994;BME280;40891;47.242;8.648;2023-01-13T02:50:15;96357.84;;;6.34;77.88
54994;BME280;40891;47.242;8.648;2023-01-13T02:52:50;96357.59;;;6.48;77.71
54994;BME280;40891;47.242;8.648;2023-01-13T02:55:23;96364.69;;;6.65;77.39
54994;BME280;40891;47.242;8.648;2023-01-13T02:57:51;96365.31;;;6.73;76.96
54994;BME280;40891;47.242;8.648;2023-01-13T03:00:18;96354.25;;;6.93;73.19
54994;BME280;40891;47.242;8.648;2023-01-13T03:02:44;96353.72;;;6.98;74.17
54994;BME280;40891;47.242;8.648;2023-01-13T03:05:13;96356.41;;;7.01;73.84
54994;BME280;40891;47.242;8.648;2023-01-13T03:07:52;96351.16;;;7.23;72.47
54994;BME280;40891;47.242;8.648;2023-01-13T03:10:46;96343.13;;;7.28;71.50
54994;BME280;40891;47.242;8.648;2023-01-13T03:18:45;96348.22;;;7.30;73.00
54994;BME280;40891;47.242;8.648;2023-01-13T03:21:27;96332.31;;;7.34;72.61
54994;BME280;40891;47.242;8.648;2023-01-13T03:24:06;96335.50;;;7.48;71.74
54994;BME280;40891;47.242;8.648;2023-01-13T03:26:57;96338.88;;;7.40;72.10
54994;BME280;40891;47.242;8.648;2023-01-13T03:29:31;96333.34;;;7.40;73.33
54994;BME280;40891;47.242;8.648;2023-01-13T03:32:04;96335.69;;;7.41;74.30
54994;BME280;40891;47.242;8.648;2023-01-13T03:34:39;96345.28;;;7.21;75.93
54994;BME280;40891;47.242;8.648;2023-01-13T03:37:09;96335.19;;;7.14;77.59
54994;BME280;40891;47.242;8.648;2023-01-13T03:39:39;96331.25;;;6.96;78.94
54994;BME280;40891;47.242;8.648;2023-01-13T03:42:12;96331.06;;;6.86;79.78
54994;BME280;40891;47.242;8.648;2023-01-13T03:47:21;96331.28;;;7.28;73.03
54994;BME280;40891;47.242;8.648;2023-01-13T03:49:58;96333.72;;;7.26;72.43
54994;BME280;40891;47.242;8.648;2023-01-13T03:52:44;96338.53;;;7.22;71.36
54994;BME280;40891;47.242;8.648;2023-01-13T03:55:56;96341.56;;;7.43;71.10
54994;BME280;40891;47.242;8.648;2023-01-13T03:58:13;96336.72;;;7.31;72.93
54994;BME280;40891;47.242;8.648;2023-01-13T04:06:49;96346.06;;;7.37;72.46
54994;BME280;40891;47.242;8.648;2023-01-13T04:12:30;96341.84;;;7.17;75.66
54994;BME280;40891;47.242;8.648;2023-01-13T04:15:17;96322.09;;;6.99;78.43
54994;BME280;40891;47.242;8.648;2023-01-13T04:17:43;96331.25;;;6.96;79.55
54994;BME280;40891;47.242;8.648;2023-01-13T04:20:09;96333.50;;;6.84;81.96
54994;BME280;40891;47.242;8.648;2023-01-13T04:22:34;96336.22;;;6.68;82.00
54994;BME280;40891;47.242;8.648;2023-01-13T04:24:59;96334.16;;;6.72;83.09
54994;BME280;40891;47.242;8.648;2023-01-13T04:27:25;96327.66;;;6.63;83.23
54994;BME280;40891;47.242;8.648;2023-01-13T04:29:50;96323.16;;;6.53;84.37
54994;BME280;40891;47.242;8.648;2023-01-13T04:32:15;96317.84;;;6.42;86.69
54994;BME280;40891;47.242;8.648;2023-01-13T04:34:40;96297.34;;;6.43;80.65
54994;BME280;40891;47.242;8.648;2023-01-13T04:37:06;96286.91;;;6.51;80.63
54994;BME280;40891;47.242;8.648;2023-01-13T04:39:31;96288.41;;;6.71;76.96
54994;BME280;40891;47.242;8.648;2023-01-13T04:41:57;96303.25;;;6.77;80.32
54994;BME280;40891;47.242;8.648;2023-01-13T04:44:22;96307.50;;;6.82;79.70
54994;BME280;40891;47.242;8.648;2023-01-13T04:46:47;96313.97;;;6.75;80.09
54994;BME280;40891;47.242;8.648;2023-01-13T04:49:13;96306.53;;;6.72;79.62
54994;BME280;40891;47.242;8.648;2023-01-13T04:51:38;96307.81;;;6.68;80.28
54994;BME280;40891;47.242;8.648;2023-01-13T04:54:03;96301.94;;;6.66;81.29
54994;BME280;40891;47.242;8.648;2023-01-13T04:56:29;96306.88;;;6.74;77.75
54994;BME280;40891;47.242;8.648;2023-01-13T04:58:54;96304.81;;;6.78;76.04
54994;BME280;40891;47.242;8.648;2023-01-13T05:01:19;96298.88;;;6.96;75.15
54994;BME280;40891;47.242;8.648;2023-01-13T05:03:46;96301.22;;;6.98;79.85
54994;BME280;40891;47.242;8.648;2023-01-13T05:06:11;96303.72;;;6.92;83.50
54994;BME280;40891;47.242;8.648;2023-01-13T05:08:36;96312.00;;;6.76;85.13
54994;BME280;40891;47.242;8.648;2023-01-13T05:11:02;96317.75;;;6.81;86.08
54994;BME280;40891;47.242;8.648;2023-01-13T05:13:47;96319.31;;;6.66;88.45
54994;BME280;40891;47.242;8.648;2023-01-13T05:16:31;96320.94;;;6.64;88.82
54994;BME280;40891;47.242;8.648;2023-01-13T05:19:15;96316.41;;;6.54;89.39
54994;BME280;40891;47.242;8.648;2023-01-13T05:21:40;96315.88;;;6.78;82.03
54994;BME280;40891;47.242;8.648;2023-01-13T05:24:24;96323.00;;;7.12;77.40
54994;BME280;40891;47.242;8.648;2023-01-13T05:27:08;96315.47;;;7.28;75.76
54994;BME280;40891;47.242;8.648;2023-01-13T05:29:34;96313.09;;;7.43;76.77
54994;BME280;40891;47.242;8.648;2023-01-13T05:31:59;96304.75;;;7.46;76.32
54994;BME280;40891;47.242;8.648;2023-01-13T05:34:26;96299.44;;;7.68;76.68
54994;BME280;40891;47.242;8.648;2023-01-13T05:36:52;96291.41;;;7.86;76.70
54994;BME280;40891;47.242;8.648;2023-01-13T05:39:17;96282.72;;;8.00;76.23
54994;BME280;40891;47.242;8.648;2023-01-13T05:41:42;96295.03;;;7.99;76.88
54994;BME280;40891;47.242;8.648;2023-01-13T05:44:26;96288.25;;;8.00;77.14
54994;BME280;40891;47.242;8.648;2023-01-13T05:46:51;96289.31;;;7.90;78.08
54994;BME280;40891;47.242;8.648;2023-01-13T05:49:17;96289.91;;;7.69;78.57
54994;BME280;40891;47.242;8.648;2023-01-13T05:51:42;96286.84;;;7.51;79.39
54994;BME280;40891;47.242;8.648;2023-01-13T05:54:07;96288.66;;;7.41;79.64
54994;BME280;40891;47.242;8.648;2023-01-13T05:56:32;96289.78;;;7.44;81.75
54994;BME280;40891;47.242;8.648;2023-01-13T05:58:59;96296.09;;;7.44;81.12
54994;BME280;40891;47.242;8.648;2023-01-13T06:01:24;96297.72;;;7.58;80.27
54994;BME280;40891;47.242;8.648;2023-01-13T06:03:49;96295.75;;;7.42;83.79
54994;BME280;40891;47.242;8.648;2023-01-13T06:06:15;96311.75;;;7.19;85.76
54994;BME280;40891;47.242;8.648;2023-01-13T06:08:40;96301.63;;;7.12;87.27
54994;BME280;40891;47.242;8.648;2023-01-13T06:11:05;96298.81;;;7.00;88.51
54994;BME280;40891;47.242;8.648;2023-01-13T06:13:31;96299.16;;;7.02;88.08
54994;BME280;40891;47.242;8.648;2023-01-13T06:15:57;96314.09;;;7.20;84.05
54994;BME280;40891;47.242;8.648;2023-01-13T06:18:23;96304.50;;;7.25;85.00
54994;BME280;40891;47.242;8.648;2023-01-13T06:20:48;96301.31;;;7.26;85.51
54994;BME280;40891;47.242;8.648;2023-01-13T06:23:14;96311.56;;;7.42;84.53
54994;BME280;40891;47.242;8.648;2023-01-13T06:25:51;96305.53;;;7.47;84.56
54994;BME280;40891;47.242;8.648;2023-01-13T06:28:18;96311.06;;;7.31;86.79
54994;BME280;40891;47.242;8.648;2023-01-13T06:30:46;96317.91;;;7.26;87.05
54994;BME280;40891;47.242;8.648;2023-01-13T06:33:14;96298.78;;;7.32;86.75
54994;BME280;40891;47.242;8.648;2023-01-13T06:35:45;96298.44;;;7.30;87.91
54994;BME280;40891;47.242;8.648;2023-01-13T06:38:16;96298.78;;;7.16;89.26
54994;BME280;40891;47.242;8.648;2023-01-13T06:40:42;96301.81;;;7.05;89.46
54994;BME280;40891;47.242;8.648;2023-01-13T06:43:08;96311.31;;;7.04;88.89
54994;BME280;40891;47.242;8.648;2023-01-13T06:45:46;96309.25;;;6.92;90.13
54994;BME280;40891;47.242;8.648;2023-01-13T06:48:13;96304.16;;;7.07;89.27
54994;BME280;40891;47.242;8.648;2023-01-13T06:50:39;96311.16;;;7.11;88.88
54994;BME280;40891;47.242;8.648;2023-01-13T06:53:06;96304.56;;;7.53;86.70
54994;BME280;40891;47.242;8.648;2023-01-13T06:55:31;96314.59;;;7.47;87.68
54994;BME280;40891;47.242;8.648;2023-01-13T06:57:57;96305.19;;;7.45;87.50
54994;BME280;40891;47.242;8.648;2023-01-13T07:00:24;96311.22;;;7.56;87.80
54994;BME280;40891;47.242;8.648;2023-01-13T07:02:50;96315.81;;;7.46;88.65
54994;BME280;40891;47.242;8.648;2023-01-13T07:05:17;96313.13;;;7.27;89.69
54994;BME280;40891;47.242;8.648;2023-01-13T07:07:43;96314.69;;;7.28;88.39
54994;BME280;40891;47.242;8.648;2023-01-13T07:10:10;96313.03;;;7.46;87.52
54994;BME280;40891;47.242;8.648;2023-01-13T07:12:38;96300.66;;;7.51;87.67
54994;BME280;40891;47.242;8.648;2023-01-13T07:15:25;96307.59;;;7.59;86.42
54994;BME280;40891;47.242;8.648;2023-01-13T07:17:51;96310.69;;;7.61;86.02
54994;BME280;40891;47.242;8.648;2023-01-13T07:20:17;96311.84;;;7.76;86.20
54994;BME280;40891;47.242;8.648;2023-01-13T07:22:43;96312.81;;;7.70;86.97
54994;BME280;40891;47.242;8.648;2023-01-13T07:25:08;96300.44;;;7.74;86.92
54994;BME280;40891;47.242;8.648;2023-01-13T07:27:34;96307.47;;;7.63;87.50
54994;BME280;40891;47.242;8.648;2023-01-13T07:29:59;96309.13;;;7.60;87.86
54994;BME280;40891;47.242;8.648;2023-01-13T07:32:25;96312.97;;;7.50;88.53
54994;BME280;40891;47.242;8.648;2023-01-13T07:34:50;96312.22;;;7.62;87.42
54994;BME280;40891;47.242;8.648;2023-01-13T07:37:15;96313.69;;;7.67;88.10
54994;BME280;40891;47.242;8.648;2023-01-13T07:39:41;96299.69;;;7.57;89.03
54994;BME280;40891;47.242;8.648;2023-01-13T07:42:07;96300.22;;;7.69;88.15
54994;BME280;40891;47.242;8.648;2023-01-13T07:44:51;96305.06;;;7.93;86.31
54994;BME280;40891;47.242;8.648;2023-01-13T07:47:17;96299.56;;;7.77;87.44
54994;BME280;40891;47.242;8.648;2023-01-13T07:49:43;96292.13;;;7.74;87.54
54994;BME280;40891;47.242;8.648;2023-01-13T07:52:09;96295.44;;;7.69;87.63
54994;BME280;40891;47.242;8.648;2023-01-13T07:54:34;96303.91;;;7.78;87.32
54994;BME280;40891;47.242;8.648;2023-01-13T07:56:59;96305.25;;;7.86;87.13
54994;BME280;40891;47.242;8.648;2023-01-13T07:59:25;96305.03;;;7.81;87.12
54994;BME280;40891;47.242;8.648;2023-01-13T08:01:53;96313.75;;;7.79;87.78
54994;BME280;40891;47.242;8.648;2023-01-13T08:04:18;96318.50;;;7.79;87.82
54994;BME280;40891;47.242;8.648;2023-01-13T08:06:44;96307.94;;;7.90;87.33
54994;BME280;40891;47.242;8.648;2023-01-13T08:09:09;96303.66;;;8.01;86.89
54994;BME280;40891;47.242;8.648;2023-01-13T08:11:34;96310.59;;;7.93;87.33
54994;BME280;40891;47.242;8.648;2023-01-13T08:14:00;96307.84;;;7.93;88.10
54994;BME280;40891;47.242;8.648;2023-01-13T08:16:25;96332.22;;;7.98;87.44
54994;BME280;40891;47.242;8.648;2023-01-13T08:18:51;96315.59;;;7.98;88.20
54994;BME280;40891;47.242;8.648;2023-01-13T08:21:16;96318.03;;;7.96;88.55
54994;BME280;40891;47.242;8.648;2023-01-13T08:23:43;96347.38;;;7.94;87.85
54994;BME280;40891;47.242;8.648;2023-01-13T08:26:13;96338.19;;;7.97;88.65
54994;BME280;40891;47.242;8.648;2023-01-13T08:28:40;96341.44;;;8.08;87.73
54994;BME280;40891;47.242;8.648;2023-01-13T08:31:07;96340.91;;;8.13;87.43
54994;BME280;40891;47.242;8.648;2023-01-13T08:33:34;96318.50;;;8.07;89.02
54994;BME280;40891;47.242;8.648;2023-01-13T08:36:04;96317.31;;;8.08;88.83
54994;BME280;40891;47.242;8.648;2023-01-13T08:38:30;96298.06;;;8.17;88.55
54994;BME280;40891;47.242;8.648;2023-01-13T08:40:55;96294.97;;;8.15;87.79
54994;BME280;40891;47.242;8.648;2023-01-13T08:43:21;96305.84;;;8.22;87.81
54994;BME280;40891;47.242;8.648;2023-01-13T08:45:55;96313.53;;;8.31;88.29
54994;BME280;40891;47.242;8.648;2023-01-13T08:48:21;96321.03;;;8.97;85.93
54994;BME280;40891;47.242;8.648;2023-01-13T08:50:46;96320.28;;;8.97;84.14
54994;BME280;40891;47.242;8.648;2023-01-13T08:53:12;96319.72;;;8.89;84.74
54994;BME280;40891;47.242;8.648;2023-01-13T08:55:38;96341.75;;;8.67;86.34
54994;BME280;40891;47.242;8.648;2023-01-13T08:58:04;96340.06;;;8.57;87.13
54994;BME280;40891;47.242;8.648;2023-01-13T09:00:29;96347.13;;;8.46;87.71
54994;BME280;40891;47.242;8.648;2023-01-13T09:02:55;96358.44;;;8.22;89.17
54994;BME280;40891;47.242;8.648;2023-01-13T09:05:20;96342.66;;;8.36;89.58
54994;BME280;40891;47.242;8.648;2023-01-13T09:07:45;96360.56;;;8.60;87.77
54994;BME280;40891;47.242;8.648;2023-01-13T09:10:11;96348.63;;;8.75;87.06
54994;BME280;40891;47.242;8.648;2023-01-13T09:12:36;96355.50;;;8.71;87.60
54994;BME280;40891;47.242;8.648;2023-01-13T09:15:20;96354.38;;;8.56;87.92
54994;BME280;40891;47.242;8.648;2023-01-13T09:17:45;96355.84;;;8.73;88.04
54994;BME280;40891;47.242;8.648;2023-01-13T09:20:12;96342.72;;;11.44;75.59
54994;BME280;40891;47.242;8.648;2023-01-13T09:22:37;96337.47;;;13.84;65.51
54994;BME280;40891;47.242;8.648;2023-01-13T09:25:05;96316.22;;;15.91;56.24
54994;BME280;40891;47.242;8.648;2023-01-13T09:27:30;96317.56;;;15.95;53.14
54994;BME280;40891;47.242;8.648;2023-01-13T09:29:55;96315.66;;;16.07;52.91
54994;BME280;40891;47.242;8.648;2023-01-13T09:32:21;96320.75;;;16.94;50.29
54994;BME280;40891;47.242;8.648;2023-01-13T09:34:46;96319.00;;;16.71;50.89
54994;BME280;40891;47.242;8.648;2023-01-13T09:37:29;96309.22;;;16.01;52.05
54994;BME280;40891;47.242;8.648;2023-01-13T09:39:55;96304.09;;;15.79;54.20
54994;BME280;40891;47.242;8.648;2023-01-13T09:45:20;96317.84;;;14.84;55.19
54994;BME280;40891;47.242;8.648;2023-01-13T09:47:49;96320.91;;;15.79;53.26
54994;BME280;40891;47.242;8.648;2023-01-13T09:50:27;96323.25;;;16.01;52.40
54994;BME280;40891;47.242;8.648;2023-01-13T09:52:54;96342.75;;;14.29;57.58
54994;BME280;40891;47.242;8.648;2023-01-13T09:55:29;96355.22;;;12.88;63.48
54994;BME280;40891;47.242;8.648;2023-01-13T09:57:56;96357.28;;;12.33;68.74
54994;BME280;40891;47.242;8.648;2023-01-13T10:03:12;96380.00;;;10.20;80.22
54994;BME280;40891;47.242;8.648;2023-01-13T10:06:09;96392.91;;;9.54;84.46
54994;BME280;40891;47.242;8.648;2023-01-13T10:08:41;96414.56;;;9.22;87.85
54994;BME280;40891;47.242;8.648;2023-01-13T10:11:18;96383.91;;;8.87;90.09
54994;BME280;40891;47.242;8.648;2023-01-13T10:14:11;96353.75;;;8.77;91.45
54994;BME280;40891;47.242;8.648;2023-01-13T10:16:47;96365.81;;;8.83;91.51
54994;BME280;40891;47.242;8.648;2023-01-13T10:19:36;96365.81;;;8.83;92.17
54994;BME280;40891;47.242;8.648;2023-01-13T10:27:42;96373.94;;;8.90;91.98
54994;BME280;40891;47.242;8.648;2023-01-13T10:32:42;96365.63;;;9.15;90.65
54994;BME280;40891;47.242;8.648;2023-01-13T10:35:10;96368.97;;;9.10;90.90
54994;BME280;40891;47.242;8.648;2023-01-13T10:37:36;96367.84;;;9.33;89.05
54994;BME280;40891;47.242;8.648;2023-01-13T10:40:02;96379.47;;;9.66;87.90
54994;BME280;40891;47.242;8.648;2023-01-13T10:42:28;96374.13;;;9.58;87.98
54994;BME280;40891;47.242;8.648;2023-01-13T10:44:58;96381.94;;;9.51;89.49
54994;BME280;40891;47.242;8.648;2023-01-13T10:47:27;96379.72;;;9.33;89.14
54994;BME280;40891;47.242;8.648;2023-01-13T10:52:40;96378.94;;;10.05;84.93
54994;BME280;40891;47.242;8.648;2023-01-13T10:57:51;96378.69;;;9.65;85.75
54994;BME280;40891;47.242;8.648;2023-01-13T11:00:32;96370.94;;;9.47;87.53
54994;BME280;40891;47.242;8.648;2023-01-13T11:05:55;96371.72;;;9.23;88.81
54994;BME280;40891;47.242;8.648;2023-01-13T11:08:40;96379.81;;;9.42;87.86
54994;BME280;40891;47.242;8.648;2023-01-13T11:14:00;96380.16;;;10.16;83.78
54994;BME280;40891;47.242;8.648;2023-01-13T11:16:50;96378.94;;;10.05;84.10
54994;BME280;40891;47.242;8.648;2023-01-13T11:19:18;96393.41;;;9.87;86.16
54994;BME280;40891;47.242;8.648;2023-01-13T11:22:06;96399.88;;;9.84;86.94
54994;BME280;40891;47.242;8.648;2023-01-13T11:24:47;96392.59;;;9.65;87.37
54994;BME280;40891;47.242;8.648;2023-01-13T11:30:35;96390.25;;;9.51;88.09
54994;BME280;40891;47.242;8.648;2023-01-13T11:38:51;96396.78;;;9.44;88.99
54994;BME280;40891;47.242;8.648;2023-01-13T11:41:42;96396.03;;;9.31;89.93
54994;BME280;40891;47.242;8.648;2023-01-13T11:46:33;96403.34;;;9.13;91.33
54994;BME280;40891;47.242;8.648;2023-01-13T11:48:59;96412.56;;;9.10;91.58
54994;BME280;40891;47.242;8.648;2023-01-13T11:51:36;96392.03;;;9.07;92.72
54994;BME280;40891;47.242;8.648;2023-01-13T12:05:26;96376.72;;;9.40;91.49
54994;BME280;40891;47.242;8.648;2023-01-13T12:07:57;96384.91;;;9.56;90.53
54994;BME280;40891;47.242;8.648;2023-01-13T12:13:14;96376.59;;;10.03;87.87
54994;BME280;40891;47.242;8.648;2023-01-13T12:21:19;96352.38;;;10.38;84.21
54994;BME280;40891;47.242;8.648;2023-01-13T12:24:05;96345.19;;;10.28;83.97
54994;BME280;40891;47.242;8.648;2023-01-13T12:26:38;96350.03;;;10.15;85.08
54994;BME280;40891;47.242;8.648;2023-01-13T12:29:14;96349.69;;;10.13;85.31
54994;BME280;40891;47.242;8.648;2023-01-13T12:31:44;96364.63;;;9.94;86.96
54994;BME280;40891;47.242;8.648;2023-01-13T12:37:12;96371.19;;;9.15;93.90
54994;BME280;40891;47.242;8.648;2023-01-13T12:42:20;96368.25;;;8.81;91.48
54994;BME280;40891;47.242;8.648;2023-01-13T12:47:43;96397.06;;;8.30;91.83
54994;BME280;40891;47.242;8.648;2023-01-13T12:52:52;96397.53;;;7.96;95.89
54994;BME280;40891;47.242;8.648;2023-01-13T12:55:34;96423.09;;;7.71;95.87
54994;BME280;40891;47.242;8.648;2023-01-13T13:00:36;96434.56;;;7.70;97.80
54994;BME280;40891;47.242;8.648;2023-01-13T13:03:32;96433.78;;;7.69;97.71
54994;BME280;40891;47.242;8.648;2023-01-13T13:19:53;96453.31;;;7.46;95.06
54994;BME280;40891;47.242;8.648;2023-01-13T13:22:35;96443.81;;;7.47;90.66
54994;BME280;40891;47.242;8.648;2023-01-13T13:28:07;96446.16;;;7.48;88.99
54994;BME280;40891;47.242;8.648;2023-01-13T13:30:38;96452.13;;;7.47;90.29
54994;BME280;40891;47.242;8.648;2023-01-13T13:33:58;96446.94;;;7.49;90.68
54994;BME280;40891;47.242;8.648;2023-01-13T13:36:14;96463.38;;;7.56;88.25
54994;BME280;40891;47.242;8.648;2023-01-13T13:39:04;96475.22;;;7.57;89.41
54994;BME280;40891;47.242;8.648;2023-01-13T13:42:01;96475.13;;;7.60;91.32
54994;BME280;40891;47.242;8.648;2023-01-13T13:44:47;96482.28;;;7.57;91.53
54994;BME280;40891;47.242;8.648;2023-01-13T13:47:37;96460.16;;;7.57;91.93
54994;BME280;40891;47.242;8.648;2023-01-13T13:50:10;96460.88;;;7.62;94.20
54994;BME280;40891;47.242;8.648;2023-01-13T13:52:42;96476.69;;;7.61;93.04
54994;BME280;40891;47.242;8.648;2023-01-13T13:55:17;96468.03;;;7.59;91.44
54994;BME280;40891;47.242;8.648;2023-01-13T13:57:49;96466.81;;;7.60;93.11
54994;BME280;40891;47.242;8.648;2023-01-13T14:02:48;96489.13;;;7.69;92.34
54994;BME280;40891;47.242;8.648;2023-01-13T14:05:21;96500.63;;;7.68;93.01
54994;BME280;40891;47.242;8.648;2023-01-13T14:07:49;96503.13;;;7.62;93.54
54994;BME280;40891;47.242;8.648;2023-01-13T14:10:24;96518.59;;;7.60;93.98
54994;BME280;40891;47.242;8.648;2023-01-13T14:12:52;96532.81;;;7.62;94.47
54994;BME280;40891;47.242;8.648;2023-01-13T14:15:32;96511.00;;;7.64;93.12
54994;BME280;40891;47.242;8.648;2023-01-13T14:18:05;96506.97;;;7.68;93.33
54994;BME280;40891;47.242;8.648;2023-01-13T14:20:34;96505.50;;;7.80;92.03
54994;BME280;40891;47.242;8.648;2023-01-13T14:23:01;96510.59;;;7.81;92.17
54994;BME280;40891;47.242;8.648;2023-01-13T14:25:30;96495.03;;;7.87;91.41
54994;BME280;40891;47.242;8.648;2023-01-13T14:27:59;96515.72;;;7.83;91.02
54994;BME280;40891;47.242;8.648;2023-01-13T14:30:27;96507.66;;;7.88;89.86
54994;BME280;40891;47.242;8.648;2023-01-13T14:32:54;96513.91;;;7.92;89.16
54994;BME280;40891;47.242;8.648;2023-01-13T14:35:20;96514.84;;;8.02;88.41
54994;BME280;40891;47.242;8.648;2023-01-13T14:37:46;96531.03;;;8.03;88.29
54994;BME280;40891;47.242;8.648;2023-01-13T14:43:00;96531.47;;;8.18;84.40
54994;BME280;40891;47.242;8.648;2023-01-13T14:45:26;96526.34;;;8.16;83.98
54994;BME280;40891;47.242;8.648;2023-01-13T14:47:52;96529.81;;;8.20;82.83
54994;BME280;40891;47.242;8.648;2023-01-13T14:50:20;96515.53;;;8.22;82.53
54994;BME280;40891;47.242;8.648;2023-01-13T14:52:52;96535.63;;;8.26;81.90
54994;BME280;40891;47.242;8.648;2023-01-13T14:55:28;96553.44;;;8.25;80.86
54994;BME280;40891;47.242;8.648;2023-01-13T15:00:41;96526.91;;;8.28;79.28
54994;BME280;40891;47.242;8.648;2023-01-13T15:03:07;96544.88;;;8.19;77.65
54994;BME280;40891;47.242;8.648;2023-01-13T15:05:34;96522.81;;;8.16;77.48
54994;BME280;40891;47.242;8.648;2023-01-13T15:08:21;96537.06;;;8.14;75.87
54994;BME280;40891;47.242;8.648;2023-01-13T15:11:00;96538.63;;;8.15;75.85
54994;BME280;40891;47.242;8.648;2023-01-13T15:13:35;96551.25;;;8.16;77.13
54994;BME280;40891;47.242;8.648;2023-01-13T15:16:04;96562.00;;;8.14;76.90
54994;BME280;40891;47.242;8.648;2023-01-13T15:18:31;96563.13;;;8.17;77.80
54994;BME280;40891;47.242;8.648;2023-01-13T15:20:58;96562.72;;;8.18;78.10
54994;BME280;40891;47.242;8.648;2023-01-13T15:23:23;96571.78;;;8.19;79.02
54994;BME280;40891;47.242;8.648;2023-01-13T15:25:49;96569.00;;;8.19;80.45
54994;BME280;40891;47.242;8.648;2023-01-13T15:28:24;96568.59;;;8.20;81.00
54994;BME280;40891;47.242;8.648;2023-01-13T15:30:52;96561.81;;;8.21;82.45